Time;durP1;ratioP1;P1;durP2;ratioP2;P2;SDS_P1;SDS_P2;PMS_P1;PMS_P2;Temp;Humidity;BMP_temperature;BMP_pressure;BME280_temperature;BME280_humidity;BME280_pressure;Samples;Min_cycle;Max_cycle;Signal;HPM_P1;HPM_P2
2021/10/09 00:02:09;;;;;;;;;;;;;;;21.71;33.41;98456.09;5015044;28;1029;-77
2021/10/09 00:04:34;;;;;;;;;;;;;;;21.75;33.06;98456.81;5015835;28;1906;-77
2021/10/09 00:06:59;;;;;;;;;;;;;;;21.82;33.03;98451.03;5035289;28;933;-77
2021/10/09 00:09:27;;;;;;;;;;;;;;;21.73;33.16;98447.97;5034618;28;967;-77
2021/10/09 00:11:52;;;;;;;;;;;;;;;21.72;32.99;98446.38;5034136;28;1044;-77
2021/10/09 00:14:18;;;;;;;;;;;;;;;21.72;33.00;98437.88;5034281;28;1022;-76
2021/10/09 00:16:43;;;;;;;;;;;;;;;21.71;33.08;98433.44;5034696;28;948;-77
2021/10/09 00:19:09;;;;;;;;;;;;;;;22.09;33.41;98435.88;5034411;28;987;-77
2021/10/09 00:21:34;;;;;;;;;;;;;;;22.25;33.31;98433.13;5034763;28;957;-77
2021/10/09 00:24:00;;;;;;;;;;;;;;;22.29;33.45;98431.00;5064367;28;905;-77
2021/10/09 00:26:26;;;;;;;;;;;;;;;21.84;33.64;98425.88;5074420;28;1878;-77
2021/10/09 00:28:52;;;;;;;;;;;;;;;22.04;32.83;98419.41;5057226;28;1012;-77
2021/10/09 00:31:17;;;;;;;;;;;;;;;21.91;32.73;98424.13;5024666;28;1132;-77
2021/10/09 00:33:43;;;;;;;;;;;;;;;21.77;32.98;98425.25;5075710;28;949;-77
2021/10/09 00:36:08;;;;;;;;;;;;;;;21.78;33.12;98438.97;5077006;28;906;-77
2021/10/09 00:38:33;;;;;;;;;;;;;;;22.06;33.51;98436.75;5075027;28;1098;-77
2021/10/09 00:40:59;;;;;;;;;;;;;;;22.27;33.41;98441.19;5077247;28;991;-77
2021/10/09 00:43:24;;;;;;;;;;;;;;;22.43;33.13;98437.59;5091468;28;936;-77
2021/10/09 00:45:55;;;;;;;;;;;;;;;21.93;33.20;98438.66;5076772;28;1987;-77
2021/10/09 00:48:20;;;;;;;;;;;;;;;21.83;33.08;98424.28;5053593;28;1036;-78
2021/10/09 00:50:46;;;;;;;;;;;;;;;21.76;33.32;98424.44;5037835;28;1181;-77
2021/10/09 00:53:11;;;;;;;;;;;;;;;21.67;33.03;98423.41;5053847;28;969;-77
2021/10/09 00:55:38;;;;;;;;;;;;;;;21.64;33.13;98422.25;5038009;28;920;-77
2021/10/09 00:58:03;;;;;;;;;;;;;;;21.74;33.09;98432.56;5033889;28;1015;-77
2021/10/09 01:00:29;;;;;;;;;;;;;;;21.68;32.83;98434.31;5034533;28;1233;-77
2021/10/09 01:02:54;;;;;;;;;;;;;;;21.78;33.83;98421.97;5037106;28;1030;-77
2021/10/09 01:05:20;;;;;;;;;;;;;;;22.05;33.76;98423.81;5021204;28;1898;-77
2021/10/09 01:07:45;;;;;;;;;;;;;;;22.28;33.50;98429.41;5020934;28;986;-77
2021/10/09 01:10:11;;;;;;;;;;;;;;;22.12;33.17;98426.53;4981518;28;1179;-77
2021/10/09 01:12:36;;;;;;;;;;;;;;;21.84;33.31;98425.06;4998454;28;1132;-77
2021/10/09 01:15:17;;;;;;;;;;;;;;;21.65;33.24;98425.88;4962059;28;1451;-77
2021/10/09 01:17:43;;;;;;;;;;;;;;;21.78;33.20;98416.28;4978832;28;1108;-77
2021/10/09 01:20:10;;;;;;;;;;;;;;;21.83;32.79;98424.28;4995058;28;1138;-77
2021/10/09 01:22:37;;;;;;;;;;;;;;;21.74;32.96;98429.72;4998016;28;1274;-77
2021/10/09 01:25:02;;;;;;;;;;;;;;;21.66;33.32;98431.13;4997475;28;1976;-78
2021/10/09 01:27:28;;;;;;;;;;;;;;;21.69;32.83;98426.59;4981820;28;1399;-77
2021/10/09 01:29:53;;;;;;;;;;;;;;;21.59;32.98;98411.44;4980994;28;1213;-76
2021/10/09 01:32:20;;;;;;;;;;;;;;;21.58;32.95;98415.50;4978119;28;1380;-78
2021/10/09 01:34:45;;;;;;;;;;;;;;;21.78;32.79;98421.97;4977998;28;1127;-76
2021/10/09 01:37:14;;;;;;;;;;;;;;;21.78;32.97;98410.63;4978345;28;1768;-77
2021/10/09 01:39:43;;;;;;;;;;;;;;;21.93;33.90;98422.47;4973248;28;1069;-77
2021/10/09 01:42:09;;;;;;;;;;;;;;;22.15;33.72;98425.66;4959090;28;1128;-77
2021/10/09 01:44:35;;;;;;;;;;;;;;;22.34;32.97;98424.81;4939212;29;1151;-77
2021/10/09 01:47:01;;;;;;;;;;;;;;;21.99;33.23;98428.41;4952297;29;1915;-77
2021/10/09 01:49:31;;;;;;;;;;;;;;;21.79;33.44;98423.56;4938678;29;1158;-77
2021/10/09 01:52:01;;;;;;;;;;;;;;;21.78;33.10;98433.28;4958418;29;1211;-77
2021/10/09 01:54:26;;;;;;;;;;;;;;;21.73;33.33;98425.31;4958211;29;991;-77
2021/10/09 01:56:52;;;;;;;;;;;;;;;21.77;33.11;98437.38;4945637;28;904;-77
2021/10/09 01:59:19;;;;;;;;;;;;;;;21.76;32.81;98430.09;4985477;28;1170;-77
2021/10/09 02:01:52;;;;;;;;;;;;;;;21.89;34.01;98432.28;5017353;28;1301;-77
2021/10/09 02:04:18;;;;;;;;;;;;;;;22.09;33.75;98436.69;5016253;28;1099;-77
2021/10/09 02:06:47;;;;;;;;;;;;;;;22.30;33.24;98432.59;5016712;28;1975;-77
2021/10/09 02:09:16;;;;;;;;;;;;;;;22.03;33.09;98431.97;5016217;28;975;-77
2021/10/09 02:11:45;;;;;;;;;;;;;;;21.91;32.93;98424.13;5016525;28;1106;-77
2021/10/09 02:17:10;;;;;;;;;;;;;;;21.75;33.30;98428.47;5039411;28;1250;-77
2021/10/09 02:27:49;;;;;;;;;;;;;;;21.83;34.00;98431.97;5016269;28;1271;-77
2021/10/09 02:30:14;;;;;;;;;;;;;;;22.05;33.64;98430.28;5015821;28;986;-77
2021/10/09 02:32:41;;;;;;;;;;;;;;;22.22;33.61;98444.53;5016212;28;1122;-77
2021/10/09 02:35:07;;;;;;;;;;;;;;;22.03;33.27;98437.63;5019396;28;948;-77
2021/10/09 02:37:32;;;;;;;;;;;;;;;21.81;33.60;98443.75;4980327;28;1242;-77
2021/10/09 02:39:58;;;;;;;;;;;;;;;21.77;33.45;98434.53;4976729;28;1010;-77
2021/10/09 02:42:23;;;;;;;;;;;;;;;21.77;33.01;98434.53;4980164;28;1252;-77
2021/10/09 02:44:49;;;;;;;;;;;;;;;21.67;33.04;98432.72;4979528;28;1910;-77
2021/10/09 02:47:14;;;;;;;;;;;;;;;21.74;32.96;98431.75;4979877;28;1247;-77
2021/10/09 02:49:40;;;;;;;;;;;;;;;21.60;33.26;98435.66;4963673;28;1068;-77
2021/10/09 02:52:06;;;;;;;;;;;;;;;21.57;33.29;98445.06;4979652;28;1100;-78
2021/10/09 02:54:31;;;;;;;;;;;;;;;21.96;33.78;98437.78;4995444;28;1328;-77
2021/10/09 02:56:59;;;;;;;;;;;;;;;22.14;33.77;98443.91;4955290;28;1740;-77
2021/10/09 02:59:25;;;;;;;;;;;;;;;22.31;33.10;98442.69;4944528;28;1232;-77
2021/10/09 03:01:50;;;;;;;;;;;;;;;22.01;33.31;98431.59;4960820;28;1446;-77
2021/10/09 03:04:19;;;;;;;;;;;;;;;21.79;33.26;98426.38;4960338;28;1327;-77
2021/10/09 03:06:45;;;;;;;;;;;;;;;21.67;33.25;98444.03;4990281;28;1973;-77
2021/10/09 03:09:11;;;;;;;;;;;;;;;21.66;33.64;98442.44;5015606;28;904;-77
2021/10/09 03:11:37;;;;;;;;;;;;;;;21.65;33.19;98440.03;4983644;28;1236;-77
2021/10/09 03:14:03;;;;;;;;;;;;;;;21.66;33.09;98442.44;5019043;28;1482;-77
2021/10/09 03:16:30;;;;;;;;;;;;;;;21.66;33.26;98442.44;5058846;28;1158;-77
2021/10/09 03:18:57;;;;;;;;;;;;;;;21.73;32.90;98436.63;5058133;28;1291;-77
2021/10/09 03:21:23;;;;;;;;;;;;;;;22.05;33.55;98446.50;5075271;28;959;-77
2021/10/09 03:23:49;;;;;;;;;;;;;;;22.17;34.02;98434.50;5070932;28;1454;-77
2021/10/09 03:26:15;;;;;;;;;;;;;;;22.34;33.37;98432.53;5076589;28;1973;-78
2021/10/09 03:28:41;;;;;;;;;;;;;;;21.99;33.18;98431.25;5074848;28;1122;-76
2021/10/09 03:31:07;;;;;;;;;;;;;;;21.81;33.57;98435.25;5058673;28;1571;-77
2021/10/09 03:33:35;;;;;;;;;;;;;;;21.73;33.42;98436.63;5054533;28;1069;-77
2021/10/09 03:36:00;;;;;;;;;;;;;;;21.74;33.43;98438.22;5055357;28;907;-77
2021/10/09 03:38:26;;;;;;;;;;;;;;;21.68;33.57;98444.84;5037793;28;1172;-77
2021/10/09 03:41:00;;;;;;;;;;;;;;;21.59;33.50;98449.03;5039101;28;1119;-77
2021/10/09 03:43:26;;;;;;;;;;;;;;;21.69;33.53;98429.44;5054043;28;1181;-77
2021/10/09 03:54:00;;;;;;;;;;;;;;;22.09;34.01;98427.38;5033900;28;1296;-76
2021/10/09 03:56:26;;;;;;;;;;;;;;;22.13;33.13;98422.47;5018416;28;1527;-77
2021/10/09 03:58:51;;;;;;;;;;;;;;;21.92;33.53;98420.06;5034498;28;995;-78
2021/10/09 04:01:20;;;;;;;;;;;;;;;21.76;33.32;98420.78;5034932;28;1188;-77
2021/10/09 04:03:45;;;;;;;;;;;;;;;21.83;33.23;98424.28;4978200;28;968;-77
2021/10/09 04:06:10;;;;;;;;;;;;;;;21.99;33.32;98434.09;4956542;29;1910;-78
2021/10/09 04:08:36;;;;;;;;;;;;;;;21.97;33.52;98428.84;4955799;29;1446;-77
2021/10/09 04:11:02;;;;;;;;;;;;;;;21.81;33.71;98429.59;4956970;29;1198;-77
2021/10/09 04:13:28;;;;;;;;;;;;;;;21.77;33.54;98436.56;4959290;28;1175;-78
2021/10/09 04:15:53;;;;;;;;;;;;;;;21.87;33.51;98434.75;4957001;28;1144;-77
2021/10/09 04:18:19;;;;;;;;;;;;;;;22.31;34.11;98447.56;4975197;28;1658;-78
2021/10/09 04:20:44;;;;;;;;;;;;;;;22.29;34.79;98444.41;4943230;28;1219;-77
2021/10/09 04:23:11;;;;;;;;;;;;;;;22.28;34.09;98442.81;4974277;28;1049;-77
2021/10/09 04:25:37;;;;;;;;;;;;;;;22.26;33.84;98446.06;4959581;28;1973;-70
2021/10/09 04:28:03;;;;;;;;;;;;;;;22.40;33.76;98455.50;4940717;29;1444;-78
2021/10/09 04:30:30;;;;;;;;;;;;;;;22.42;33.75;98455.84;4940567;29;1133;-78
2021/10/09 04:32:55;;;;;;;;;;;;;;;22.23;33.42;98441.28;4958188;28;922;-77
2021/10/09 04:35:21;;;;;;;;;;;;;;;22.22;33.35;98456.66;4941877;29;1441;-78
2021/10/09 04:37:48;;;;;;;;;;;;;;;22.18;33.60;98461.63;4910062;29;1087;-78
2021/10/09 04:40:15;;;;;;;;;;;;;;;22.23;33.59;98457.50;4909721;29;1157;-78
2021/10/09 04:42:41;;;;;;;;;;;;;;;22.20;33.34;98459.16;4923903;29;1163;-78
2021/10/09 04:45:08;;;;;;;;;;;;;;;22.09;33.45;98442.34;4923867;29;1895;-78
2021/10/09 04:47:39;;;;;;;;;;;;;;;22.07;33.36;98449.69;4923863;29;1484;-78
2021/10/09 04:50:05;;;;;;;;;;;;;;;22.06;33.37;98448.09;4874160;29;1337;-77
2021/10/09 04:52:31;;;;;;;;;;;;;;;22.11;32.82;98458.94;4884286;29;1013;-77
2021/10/09 04:54:58;;;;;;;;;;;;;;;22.19;32.92;98463.22;4869576;29;1137;-78
2021/10/09 04:57:24;;;;;;;;;;;;;;;22.06;32.63;98465.09;4867905;29;1346;-78
2021/10/09 04:59:50;;;;;;;;;;;;;;;22.08;32.60;98468.31;4866890;29;1382;-77
2021/10/09 05:02:16;;;;;;;;;;;;;;;22.21;31.94;98465.63;4868827;29;1117;-78
2021/10/09 05:04:43;;;;;;;;;;;;;;;22.17;32.04;98477.03;4867305;29;1174;-78
2021/10/09 05:07:09;;;;;;;;;;;;;;;22.11;31.91;98467.44;4902502;29;1965;-77
2021/10/09 05:09:34;;;;;;;;;;;;;;;22.20;31.55;98464.81;4942307;29;1183;-78
2021/10/09 05:11:59;;;;;;;;;;;;;;;22.12;31.52;98465.41;4974586;28;990;-78
2021/10/09 05:14:25;;;;;;;;;;;;;;;22.06;31.60;98473.59;4986785;28;1301;-77
2021/10/09 05:16:55;;;;;;;;;;;;;;;22.05;31.80;98475.63;5004908;28;1322;-77
2021/10/09 05:19:21;;;;;;;;;;;;;;;22.09;31.80;98478.41;4983613;28;1490;-78
2021/10/09 05:21:46;;;;;;;;;;;;;;;22.04;32.11;98478.91;5001659;28;1325;-78
2021/10/09 05:24:12;;;;;;;;;;;;;;;22.01;32.17;98482.59;4999682;28;1314;-78
2021/10/09 05:26:39;;;;;;;;;;;;;;;22.20;31.75;98487.50;5006466;28;1981;-77
2021/10/09 05:29:05;;;;;;;;;;;;;;;22.11;32.30;98487.28;5039207;28;1055;-77
2021/10/09 05:31:35;;;;;;;;;;;;;;;22.38;32.13;98491.97;5001093;28;1076;-77
2021/10/09 05:34:01;;;;;;;;;;;;;;;22.49;32.49;98489.72;4967737;28;1247;-78
2021/10/09 05:36:30;;;;;;;;;;;;;;;22.66;32.08;98502.69;4984762;28;1327;-76
2021/10/09 05:38:55;;;;;;;;;;;;;;;22.67;32.35;98504.28;4979965;28;1168;-71
2021/10/09 05:41:21;;;;;;;;;;;;;;;23.00;31.89;98502.31;4980021;28;1022;-71
2021/10/09 05:43:51;;;;;;;;;;;;;;;22.99;31.99;98509.22;4976016;28;1112;-69
2021/10/09 05:46:18;;;;;;;;;;;;;;;22.90;32.38;98499.72;4978789;28;1985;-75
2021/10/09 05:48:44;;;;;;;;;;;;;;;23.25;32.06;98515.88;4979573;28;1146;-71
2021/10/09 05:51:20;;;;;;;;;;;;;;;23.61;31.45;98514.97;4976642;28;1184;-72
2021/10/09 06:45:27;;;;;;;;;;;;;;;23.51;31.12;98550.13;5019995;28;1925;-71
2021/10/09 07:01:37;;;;;;;;;;;;;;;23.19;31.21;98556.59;5059123;28;1112;-69
2021/10/09 07:04:03;;;;;;;;;;;;;;;23.08;31.50;98556.88;5056979;28;1267;-73
2021/10/09 07:06:31;;;;;;;;;;;;;;;23.36;31.05;98549.69;5056807;28;1910;-70
2021/10/09 07:09:01;;;;;;;;;;;;;;;23.37;30.82;98563.47;5057140;28;1352;-68
2021/10/09 07:11:37;;;;;;;;;;;;;;;23.43;31.16;98574.28;5057576;28;1145;-71
2021/10/09 07:14:05;;;;;;;;;;;;;;;23.57;31.43;98576.75;5061610;28;1617;-72
2021/10/09 07:16:30;;;;;;;;;;;;;;;23.63;30.63;98587.19;5059149;28;1563;-70
2021/10/09 07:18:56;;;;;;;;;;;;;;;23.75;30.53;98582.81;5037406;28;1429;-69
2021/10/09 07:21:22;;;;;;;;;;;;;;;23.49;30.60;98581.03;5054980;28;1139;-70
2021/10/09 07:23:47;;;;;;;;;;;;;;;23.37;30.73;98591.84;5054296;28;1232;-69
2021/10/09 07:26:14;;;;;;;;;;;;;;;23.28;31.00;98586.00;5042228;28;1906;-73
2021/10/09 07:28:39;;;;;;;;;;;;;;;23.46;30.59;98598.94;5059777;28;1019;-71
2021/10/09 07:31:05;;;;;;;;;;;;;;;23.46;30.81;98598.94;5058218;28;1073;-71
2021/10/09 07:33:30;;;;;;;;;;;;;;;23.48;30.68;98602.16;5016723;28;1059;-72
2021/10/09 07:35:55;;;;;;;;;;;;;;;23.41;31.06;98608.78;5019984;28;983;-71
2021/10/09 07:38:21;;;;;;;;;;;;;;;23.53;30.54;98593.91;5017361;28;1120;-70
2021/10/09 07:40:46;;;;;;;;;;;;;;;23.51;30.81;98606.94;5020263;28;956;-71
2021/10/09 07:43:12;;;;;;;;;;;;;;;23.43;30.96;98611.22;5016977;28;1139;-70
2021/10/09 07:45:37;;;;;;;;;;;;;;;23.43;30.80;98617.69;5015814;28;1910;-73
2021/10/09 07:48:03;;;;;;;;;;;;;;;23.58;30.85;98604.72;5013699;28;1283;-72
2021/10/09 07:50:28;;;;;;;;;;;;;;;23.67;30.69;98609.00;5013403;28;1038;-71
2021/10/09 07:52:53;;;;;;;;;;;;;;;23.72;30.78;98612.09;5013542;28;1031;-72
2021/10/09 07:55:19;;;;;;;;;;;;;;;23.68;30.63;98610.63;5013720;28;959;-72
2021/10/09 07:57:44;;;;;;;;;;;;;;;23.68;30.96;98610.63;5014444;28;884;-72
2021/10/09 08:00:10;;;;;;;;;;;;;;;23.68;30.70;98611.41;5013778;28;954;-72
2021/10/09 08:02:48;;;;;;;;;;;;;;;23.69;30.93;98615.84;5013272;28;955;-71
2021/10/09 08:05:13;;;;;;;;;;;;;;;23.62;30.82;98613.97;5015852;28;1989;-72
2021/10/09 08:07:38;;;;;;;;;;;;;;;23.61;30.96;98611.53;5015432;28;1130;-71
2021/10/09 08:10:04;;;;;;;;;;;;;;;23.71;31.01;98616.19;5021293;28;1055;-72
2021/10/09 08:12:29;;;;;;;;;;;;;;;23.59;31.45;98622.56;5057772;28;1366;-69
2021/10/09 08:14:55;;;;;;;;;;;;;;;23.49;31.17;98617.94;5064483;28;1087;-72
2021/10/09 08:17:20;;;;;;;;;;;;;;;23.38;31.27;98621.06;5079565;28;1554;-71
2021/10/09 08:19:46;;;;;;;;;;;;;;;23.42;31.38;98623.81;5078146;28;968;-72
2021/10/09 08:22:11;;;;;;;;;;;;;;;23.31;31.22;98632.56;5079577;28;970;-72
2021/10/09 08:24:44;;;;;;;;;;;;;;;23.20;31.28;98621.44;5056847;28;1058;-73
2021/10/09 08:27:23;;;;;;;;;;;;;;;23.29;31.07;98635.84;5056576;28;1980;-73
2021/10/09 08:36:02;;;;;;;;;;;;;;;22.74;31.45;98640.31;4997147;28;1101;-73
2021/10/09 08:40:51;;;;;;;;;;;;;;;22.72;31.47;98631.41;4970078;28;919;-73
2021/10/09 08:43:17;;;;;;;;;;;;;;;22.55;31.59;98626.94;4997283;28;995;-73
2021/10/09 08:45:44;;;;;;;;;;;;;;;22.75;31.06;98630.56;4997366;28;1915;-72
2021/10/09 08:48:09;;;;;;;;;;;;;;;22.69;31.18;98632.31;4997409;28;1048;-73
2021/10/09 08:50:35;;;;;;;;;;;;;;;22.71;31.18;98626.97;4997083;28;1070;-73
2021/10/09 08:53:07;;;;;;;;;;;;;;;22.67;31.26;98623.41;4997128;28;955;-73
2021/10/09 08:55:35;;;;;;;;;;;;;;;22.60;30.98;98634.94;5015731;28;953;-73
2021/10/09 08:58:03;;;;;;;;;;;;;;;22.54;30.94;98642.34;5036404;28;998;-73
2021/10/09 09:00:43;;;;;;;;;;;;;;;22.61;30.76;98636.50;5055678;28;1058;-73
2021/10/09 09:03:14;;;;;;;;;;;;;;;22.55;30.82;98643.94;5078557;28;1088;-73
2021/10/09 09:09:06;;;;;;;;;;;;;;;22.46;31.16;98640.88;5077112;28;1125;-73
2021/10/09 09:36:07;;;;;;;;;;;;;;;22.54;30.74;98645.19;4938615;29;1208;-73
2021/10/09 09:40:58;;;;;;;;;;;;;;;22.38;31.18;98647.91;4938051;29;1295;-73
2021/10/09 09:43:24;;;;;;;;;;;;;;;22.43;30.85;98641.75;4938402;29;968;-73
2021/10/09 09:45:49;;;;;;;;;;;;;;;22.41;30.72;98644.22;4921766;29;1980;-73
2021/10/09 09:48:15;;;;;;;;;;;;;;;22.52;30.92;98639.13;4938008;29;1597;-73
2021/10/09 09:50:42;;;;;;;;;;;;;;;22.43;30.79;98638.91;4945912;28;2084;-73
2021/10/09 09:53:07;;;;;;;;;;;;;;;22.34;30.92;98639.50;5015510;28;1105;-72
2021/10/09 09:55:33;;;;;;;;;;;;;;;22.57;30.90;98630.91;5014964;28;2059;-76
2021/10/09 09:57:59;;;;;;;;;;;;;;;22.59;30.99;98644.69;5014146;28;1609;-76
2021/10/09 10:00:24;;;;;;;;;;;;;;;22.50;31.36;98636.75;5015851;28;1871;-77
2021/10/09 10:02:51;;;;;;;;;;;;;;;22.44;31.08;98643.38;4997735;28;1511;-78
2021/10/09 10:05:17;;;;;;;;;;;;;;;22.34;31.09;98640.28;5006697;28;1975;-77
2021/10/09 10:07:42;;;;;;;;;;;;;;;22.45;31.11;98642.13;5007696;28;1631;-78
2021/10/09 10:10:08;;;;;;;;;;;;;;;22.32;31.32;98637.06;5015661;28;1747;-73
2021/10/09 10:12:34;;;;;;;;;;;;;;;22.52;31.47;98644.81;5025215;28;1803;-77
2021/10/09 10:15:00;;;;;;;;;;;;;;;22.43;31.25;98642.53;5038781;28;2186;-77
2021/10/09 10:17:38;;;;;;;;;;;;;;;22.46;31.08;98652.22;5039501;28;1372;-77
2021/10/09 10:20:08;;;;;;;;;;;;;;;22.52;31.09;98647.63;5039105;28;1016;-77
2021/10/09 10:22:33;;;;;;;;;;;;;;;22.42;31.10;98648.66;5040720;28;917;-78
2021/10/09 10:24:59;;;;;;;;;;;;;;;22.34;31.02;98650.84;5039454;28;1913;-78
2021/10/09 10:27:32;;;;;;;;;;;;;;;22.20;31.51;98651.91;5057491;28;916;-78
2021/10/09 10:30:18;;;;;;;;;;;;;;;22.22;31.47;98657.94;5056572;28;831;-79
2021/10/09 10:32:47;;;;;;;;;;;;;;;22.14;31.43;98659.31;5016633;28;1243;-78
2021/10/09 10:35:28;;;;;;;;;;;;;;;22.09;31.32;98662.59;5016578;28;969;-78
2021/10/09 10:37:56;;;;;;;;;;;;;;;22.09;31.37;98656.94;5016403;28;996;-78
2021/10/09 10:40:40;;;;;;;;;;;;;;;22.08;31.08;98644.00;4997007;28;1027;-78
2021/10/09 10:43:23;;;;;;;;;;;;;;;22.07;31.11;98653.72;4980385;28;1032;-78
2021/10/09 10:45:49;;;;;;;;;;;;;;;22.02;31.29;98655.03;4997887;28;1914;-78
2021/10/09 10:48:34;;;;;;;;;;;;;;;21.96;31.48;98658.78;4957559;29;853;-78
2021/10/09 10:54:04;;;;;;;;;;;;;;;21.97;31.46;98666.06;4957330;29;945;-78
2021/10/09 10:56:30;;;;;;;;;;;;;;;21.81;31.35;98664.72;4901469;29;928;-78
2021/10/09 10:59:24;;;;;;;;;;;;;;;21.91;31.19;98662.09;4900405;29;930;-78
2021/10/09 11:02:00;;;;;;;;;;;;;;;21.97;31.19;98666.88;4827794;29;1282;-78
2021/10/09 11:04:33;;;;;;;;;;;;;;;21.85;31.66;98665.44;4832315;29;929;-78
2021/10/09 11:06:58;;;;;;;;;;;;;;;21.73;31.36;98662.44;4830459;29;1997;-78
2021/10/09 11:09:24;;;;;;;;;;;;;;;21.28;32.51;98674.00;4829458;29;959;-78
2021/10/09 11:11:49;;;;;;;;;;;;;;;22.17;31.19;98664.09;4856650;29;916;-78
2021/10/09 11:14:32;;;;;;;;;;;;;;;22.22;31.34;98665.63;4866892;29;991;-78
2021/10/09 11:16:58;;;;;;;;;;;;;;;22.08;32.12;98681.66;4867597;29;806;-75
2021/10/09 11:19:42;;;;;;;;;;;;;;;22.15;32.16;98669.41;4871974;29;998;-77
2021/10/09 11:22:11;;;;;;;;;;;;;;;22.28;31.98;98661.88;4867112;29;959;-73
2021/10/09 11:24:46;;;;;;;;;;;;;;;22.63;31.73;98665.22;4862556;29;904;-78
2021/10/09 11:27:12;;;;;;;;;;;;;;;22.20;32.09;98663.25;4849354;29;1888;-79
2021/10/09 11:29:38;;;;;;;;;;;;;;;22.07;31.86;98676.38;4841203;29;838;-79
2021/10/09 11:32:04;;;;;;;;;;;;;;;21.98;31.84;98676.16;4846753;29;1121;-80
2021/10/09 11:34:29;;;;;;;;;;;;;;;21.86;31.79;98688.91;4887145;29;1164;-77
2021/10/09 11:36:55;;;;;;;;;;;;;;;21.90;31.93;98683.97;4904335;29;1254;-79
2021/10/09 11:39:24;;;;;;;;;;;;;;;22.28;31.84;98687.41;4989073;28;953;-79
2021/10/09 11:42:02;;;;;;;;;;;;;;;22.18;32.08;98671.38;5017629;28;836;-78
2021/10/09 11:44:35;;;;;;;;;;;;;;;21.93;31.89;98682.34;5016248;28;979;-79
2021/10/09 11:55:02;;;;;;;;;;;;;;;21.79;32.38;98689.81;4984787;28;1067;-79
2021/10/09 11:57:31;;;;;;;;;;;;;;;22.06;32.01;98700.31;5036481;28;878;-77
2021/10/09 11:59:56;;;;;;;;;;;;;;;21.83;31.84;98682.06;5035688;28;848;-78
2021/10/09 12:02:31;;;;;;;;;;;;;;;21.68;31.99;98689.19;5038999;28;896;-78
2021/10/09 12:04:57;;;;;;;;;;;;;;;21.79;31.60;98689.81;5035007;28;883;-78
2021/10/09 12:07:22;;;;;;;;;;;;;;;21.71;32.31;98696.84;5039020;28;1972;-79
2021/10/09 12:09:58;;;;;;;;;;;;;;;21.96;32.05;98698.44;5037834;28;874;-79
2021/10/09 12:12:26;;;;;;;;;;;;;;;21.94;32.02;98698.09;5037583;28;824;-71
2021/10/09 12:14:52;;;;;;;;;;;;;;;22.16;31.96;98699.34;5032600;28;1049;-71
2021/10/09 12:17:20;;;;;;;;;;;;;;;22.05;32.25;98685.34;5032182;28;940;-70
2021/10/09 12:19:48;;;;;;;;;;;;;;;22.17;32.33;98698.09;5028106;28;1066;-71
2021/10/09 12:22:14;;;;;;;;;;;;;;;22.15;32.27;98694.91;5012923;28;862;-72
2021/10/09 12:24:48;;;;;;;;;;;;;;;22.28;32.29;98698.75;5012534;28;1001;-72
2021/10/09 12:27:17;;;;;;;;;;;;;;;22.52;32.03;98695.84;5013496;28;1927;-72
2021/10/09 12:30:04;;;;;;;;;;;;;;;22.43;32.46;98698.44;5035893;28;942;-73
2021/10/09 12:32:30;;;;;;;;;;;;;;;22.35;32.66;98698.59;5035409;28;1012;-73
2021/10/09 12:35:10;;;;;;;;;;;;;;;22.28;32.51;98692.28;5052237;28;842;-73
2021/10/09 12:37:37;;;;;;;;;;;;;;;22.49;32.68;98705.25;5053120;28;860;-73
2021/10/09 12:40:15;;;;;;;;;;;;;;;22.44;32.31;98700.06;5031998;28;921;-74
2021/10/09 12:42:41;;;;;;;;;;;;;;;22.31;32.87;98702.72;5031708;28;1514;-72
2021/10/09 12:45:06;;;;;;;;;;;;;;;22.48;32.71;98695.13;5031739;28;1895;-74
2021/10/09 12:47:32;;;;;;;;;;;;;;;22.49;32.57;98697.53;5031561;28;1056;-72
2021/10/09 12:49:57;;;;;;;;;;;;;;;22.42;32.63;98694.03;5032106;28;825;-72
2021/10/09 12:52:23;;;;;;;;;;;;;;;22.33;32.87;98694.59;5032002;28;886;-72
2021/10/09 12:54:48;;;;;;;;;;;;;;;22.47;32.58;98691.47;5032092;28;956;-73
2021/10/09 12:57:13;;;;;;;;;;;;;;;22.44;32.55;98705.75;5035513;28;794;-73
2021/10/09 12:59:39;;;;;;;;;;;;;;;22.57;32.59;98706.69;5035838;28;916;-74
2021/10/09 13:02:04;;;;;;;;;;;;;;;22.54;32.47;98699.06;5035458;28;1073;-74
2021/10/09 13:04:30;;;;;;;;;;;;;;;22.30;32.89;98704.75;5055175;28;971;-73
2021/10/09 13:06:55;;;;;;;;;;;;;;;22.54;32.47;98693.41;5055320;28;1985;-73
2021/10/09 13:09:21;;;;;;;;;;;;;;;22.47;32.77;98696.34;5035673;28;1072;-74
2021/10/09 13:12:11;;;;;;;;;;;;;;;22.41;32.70;98695.25;5051702;28;944;-73
2021/10/09 13:14:32;;;;;;;;;;;;;;;22.55;32.53;98706.34;5000873;28;1408;-72
2021/10/09 13:16:58;;;;;;;;;;;;;;;22.52;32.13;98695.84;4996600;28;838;-72
2021/10/09 13:19:23;;;;;;;;;;;;;;;22.53;32.31;98703.13;4995545;28;811;-72
2021/10/09 13:21:49;;;;;;;;;;;;;;;22.79;32.04;98698.53;4995857;28;808;-72
2021/10/09 13:24:14;;;;;;;;;;;;;;;22.52;32.33;98701.53;4995831;28;913;-72
2021/10/09 13:26:40;;;;;;;;;;;;;;;22.59;32.10;98701.41;4995810;28;1980;-72
2021/10/09 13:29:06;;;;;;;;;;;;;;;22.56;32.14;98697.38;5001748;28;1000;-78
2021/10/09 13:31:31;;;;;;;;;;;;;;;22.34;32.37;98705.50;5009563;28;818;-79
2021/10/09 13:33:57;;;;;;;;;;;;;;;22.27;32.32;98708.44;5007527;28;981;-78
2021/10/09 13:36:23;;;;;;;;;;;;;;;22.25;32.29;98710.94;5009515;28;846;-79
2021/10/09 13:38:48;;;;;;;;;;;;;;;22.15;32.05;98705.44;5006648;28;990;-78
2021/10/09 13:41:14;;;;;;;;;;;;;;;22.16;32.07;98705.00;5009453;28;788;-79
2021/10/09 13:43:39;;;;;;;;;;;;;;;22.01;31.97;98714.97;4968454;28;929;-78
2021/10/09 13:46:05;;;;;;;;;;;;;;;22.14;31.90;98716.00;4974903;28;1915;-79
2021/10/09 13:48:30;;;;;;;;;;;;;;;22.03;31.58;98710.47;4987311;28;878;-79
2021/10/09 13:50:56;;;;;;;;;;;;;;;22.14;31.57;98718.03;4990511;28;993;-78
2021/10/09 13:53:21;;;;;;;;;;;;;;;22.00;31.68;98716.19;4986613;28;807;-79
2021/10/09 13:55:47;;;;;;;;;;;;;;;21.96;31.94;98709.78;4990320;28;1149;-78
2021/10/09 13:58:13;;;;;;;;;;;;;;;21.72;32.04;98706.16;4987242;28;989;-79
2021/10/09 14:00:38;;;;;;;;;;;;;;;21.90;31.93;98720.00;4989413;28;780;-79
2021/10/09 14:03:04;;;;;;;;;;;;;;;21.89;31.53;98715.59;4987639;28;796;-79
2021/10/09 14:05:29;;;;;;;;;;;;;;;22.02;31.52;98714.56;4988578;28;1887;-79
2021/10/09 14:07:55;;;;;;;;;;;;;;;21.93;31.48;98722.00;4987835;28;1028;-79
2021/10/09 14:10:20;;;;;;;;;;;;;;;21.93;31.58;98710.66;4988263;28;942;-79
2021/10/09 14:12:46;;;;;;;;;;;;;;;22.01;31.46;98717.78;4987757;28;964;-79
2021/10/09 14:15:12;;;;;;;;;;;;;;;22.08;30.90;98712.03;5031301;28;775;-79
2021/10/09 14:17:37;;;;;;;;;;;;;;;22.03;31.38;98716.16;5065091;28;850;-78
2021/10/09 14:20:03;;;;;;;;;;;;;;;22.01;31.49;98720.63;5068947;28;881;-79
2021/10/09 14:22:29;;;;;;;;;;;;;;;21.89;31.57;98722.03;5071248;28;761;-79
2021/10/09 14:24:54;;;;;;;;;;;;;;;21.82;31.50;98717.31;5033100;28;1175;-79
2021/10/09 14:27:20;;;;;;;;;;;;;;;22.00;31.60;98721.88;5088687;28;1961;-79
2021/10/09 14:29:45;;;;;;;;;;;;;;;21.76;31.64;98727.53;5083151;28;735;-80
2021/10/09 14:32:10;;;;;;;;;;;;;;;21.78;31.79;98722.22;5087987;28;761;-79
2021/10/09 14:34:36;;;;;;;;;;;;;;;21.83;31.82;98724.56;5086279;28;793;-78
2021/10/09 14:37:01;;;;;;;;;;;;;;;21.79;31.47;98712.50;5090374;28;766;-80
2021/10/09 14:39:28;;;;;;;;;;;;;;;21.90;31.58;98717.19;5089139;28;1166;-80
2021/10/09 14:41:54;;;;;;;;;;;;;;;21.82;31.59;98722.97;5091805;28;816;-80
2021/10/09 14:44:19;;;;;;;;;;;;;;;21.88;31.48;98719.66;5090782;28;893;-79
2021/10/09 14:49:29;;;;;;;;;;;;;;;21.88;31.39;98726.13;5090840;28;765;-80
2021/10/09 14:52:00;;;;;;;;;;;;;;;21.82;31.39;98722.97;5092053;28;987;-80
2021/10/09 15:16:13;;;;;;;;;;;;;;;21.78;31.71;98727.88;5091889;28;900;-80
2021/10/09 15:19:03;;;;;;;;;;;;;;;21.58;31.96;98724.94;5089447;28;893;-80
2021/10/09 15:21:28;;;;;;;;;;;;;;;21.73;31.61;98727.56;5091129;28;774;-79
2021/10/09 15:23:54;;;;;;;;;;;;;;;21.80;31.57;98736.75;5089717;28;797;-80
2021/10/09 15:26:19;;;;;;;;;;;;;;;21.82;31.33;98727.84;5091378;28;1914;-80
2021/10/09 15:28:45;;;;;;;;;;;;;;;21.78;31.63;98736.38;5082177;28;1179;-79
2021/10/09 15:31:13;;;;;;;;;;;;;;;21.68;31.66;98731.69;5086075;28;1148;-78
2021/10/09 15:33:39;;;;;;;;;;;;;;;21.83;31.35;98740.78;5080601;28;915;-78
2021/10/09 15:36:04;;;;;;;;;;;;;;;21.77;31.68;98746.13;5079098;28;1116;-77
2021/10/09 15:38:30;;;;;;;;;;;;;;;21.78;31.42;98750.56;5077378;28;757;-79
2021/10/09 15:40:55;;;;;;;;;;;;;;;21.91;32.53;98755.59;5081953;28;712;-79